createdAt,value
2022-09-18T00:01:37.959Z,9.20
2022-09-18T00:04:07.615Z,7.90
2022-09-18T00:06:39.155Z,7.80
2022-09-18T00:09:10.930Z,8.30
2022-09-18T00:11:42.946Z,8.00
2022-09-18T00:14:13.750Z,7.90
2022-09-18T00:16:42.014Z,7.40
2022-09-18T00:19:10.810Z,8.70
2022-09-18T00:21:42.133Z,8.80
2022-09-18T00:24:10.862Z,8.80
2022-09-18T00:26:39.832Z,8.60
2022-09-18T00:29:07.893Z,8.90
2022-09-18T00:31:37.392Z,9.40
2022-09-18T00:34:13.234Z,9.40
2022-09-18T00:36:41.759Z,10.70
2022-09-18T00:39:11.268Z,8.80
2022-09-18T00:41:41.896Z,8.50
2022-09-18T00:44:41.940Z,8.30
2022-09-18T00:47:09.910Z,8.60
2022-09-18T00:49:56.788Z,8.70
2022-09-18T00:52:30.022Z,8.10
2022-09-18T00:55:07.571Z,8.90
2022-09-18T00:57:41.496Z,9.20
2022-09-18T01:00:14.563Z,8.10
2022-09-18T01:02:45.339Z,8.70
2022-09-18T01:05:16.339Z,8.70
2022-09-18T01:08:07.662Z,8.40
2022-09-18T01:11:01.443Z,8.60
2022-09-18T01:13:45.164Z,8.50
2022-09-18T01:16:29.108Z,8.20
2022-09-18T01:19:28.814Z,8.10
2022-09-18T01:22:16.910Z,9.20
2022-09-18T01:25:16.624Z,8.40
2022-09-18T01:28:06.384Z,8.40
2022-09-18T01:30:38.938Z,8.80
2022-09-18T01:33:13.256Z,8.40
2022-09-18T01:35:49.017Z,9.30
2022-09-18T01:38:46.481Z,8.60
2022-09-18T01:41:30.537Z,9.30
2022-09-18T01:44:17.857Z,8.20
2022-09-18T01:46:47.189Z,8.60
2022-09-18T01:49:23.092Z,8.10
2022-09-18T01:52:00.172Z,7.50
2022-09-18T01:54:33.188Z,11.30
2022-09-18T01:57:25.743Z,10.40
2022-09-18T02:00:00.856Z,12.20
2022-09-18T02:02:49.441Z,8.10
2022-09-18T02:05:29.975Z,11.00
2022-09-18T02:08:15.690Z,7.50
2022-09-18T02:10:54.063Z,6.70
2022-09-18T02:13:29.135Z,7.50
2022-09-18T02:16:03.358Z,7.40
2022-09-18T02:18:38.156Z,7.70
2022-09-18T02:21:13.573Z,7.00
2022-09-18T02:23:42.792Z,6.80
2022-09-18T02:26:14.671Z,7.80
2022-09-18T02:28:44.687Z,8.90
2022-09-18T02:31:13.097Z,8.10
2022-09-18T02:33:41.045Z,6.40
2022-09-18T02:36:09.491Z,9.00
2022-09-18T02:39:01.430Z,6.50
2022-09-18T02:42:01.339Z,7.20
2022-09-18T02:44:39.024Z,6.60
2022-09-18T02:47:38.944Z,7.10
2022-09-18T02:50:12.783Z,6.90
2022-09-18T02:52:54.958Z,5.80
2022-09-18T02:55:27.328Z,6.60
2022-09-18T02:58:05.330Z,6.80
2022-09-18T03:00:35.129Z,6.20
2022-09-18T03:03:13.718Z,6.70
2022-09-18T03:05:47.199Z,6.00
2022-09-18T03:08:15.071Z,6.40
2022-09-18T03:10:42.844Z,5.90
2022-09-18T03:13:12.235Z,5.90
2022-09-18T03:15:40.151Z,7.20
2022-09-18T03:18:08.083Z,6.00
2022-09-18T03:20:35.902Z,5.50
2022-09-18T03:23:06.517Z,5.80
2022-09-18T03:25:34.501Z,6.10
2022-09-18T03:28:03.824Z,7.30
2022-09-18T03:30:37.670Z,6.80
2022-09-18T03:33:05.939Z,6.80
2022-09-18T03:35:34.069Z,7.20
2022-09-18T03:38:01.894Z,7.70
2022-09-18T03:40:31.704Z,7.40
2022-09-18T03:43:04.710Z,7.90
2022-09-18T03:45:33.189Z,8.50
2022-09-18T03:48:03.460Z,8.20
2022-09-18T03:50:31.735Z,7.00
2022-09-18T03:53:00.983Z,7.70
2022-09-18T03:55:36.934Z,7.50
2022-09-18T03:58:24.820Z,7.90
2022-09-18T04:01:10.350Z,8.20
2022-09-18T04:03:53.861Z,7.70
2022-09-18T04:06:44.759Z,8.00
2022-09-18T04:09:32.551Z,7.90
2022-09-18T04:12:01.119Z,7.70
2022-09-18T04:14:30.303Z,7.00
2022-09-18T04:17:00.530Z,7.90
2022-09-18T04:19:28.721Z,7.80
2022-09-18T04:22:00.133Z,8.60
2022-09-18T04:24:29.427Z,8.60
2022-09-18T04:26:57.222Z,8.40
2022-09-18T04:29:27.802Z,8.90
2022-09-18T04:31:57.196Z,7.30
2022-09-18T04:34:27.382Z,10.20
2022-09-18T04:36:55.239Z,8.10
2022-09-18T04:39:23.911Z,7.40
2022-09-18T04:41:51.749Z,7.00
2022-09-18T04:44:20.137Z,7.50
2022-09-18T04:46:48.071Z,6.90
2022-09-18T04:49:16.952Z,8.70
2022-09-18T04:51:45.169Z,7.40
2022-09-18T04:54:15.161Z,9.20
2022-09-18T04:56:43.264Z,8.60
2022-09-18T04:59:11.073Z,9.30
2022-09-18T05:01:41.610Z,8.30
2022-09-18T05:04:12.224Z,8.30
2022-09-18T05:06:49.244Z,8.40
2022-09-18T05:09:18.648Z,8.50
2022-09-18T05:11:46.533Z,7.90
2022-09-18T05:14:15.165Z,9.30
2022-09-18T05:16:45.517Z,8.40
2022-09-18T05:19:39.525Z,9.10
2022-09-18T05:22:14.838Z,8.90
2022-09-18T05:24:47.142Z,8.40
2022-09-18T05:27:15.465Z,7.80
2022-09-18T05:29:43.868Z,8.10
2022-09-18T05:32:20.349Z,8.00
2022-09-18T05:34:51.864Z,7.10
2022-09-18T05:37:19.766Z,8.80
2022-09-18T05:39:51.352Z,8.20
2022-09-18T05:42:19.297Z,8.40
2022-09-18T05:44:48.396Z,8.40
2022-09-18T05:47:19.325Z,7.10
2022-09-18T05:49:47.115Z,8.50
2022-09-18T05:52:14.987Z,7.50
2022-09-18T05:54:42.934Z,7.40
2022-09-18T05:57:11.170Z,6.60
2022-09-18T05:59:38.963Z,6.80
2022-09-18T06:02:06.950Z,6.30
2022-09-18T06:07:18.466Z,6.30
2022-09-18T06:09:48.101Z,5.40
2022-09-18T06:12:15.919Z,5.60
2022-09-18T06:14:45.865Z,5.20
2022-09-18T06:17:18.240Z,5.30
2022-09-18T06:19:46.075Z,5.60
2022-09-18T06:22:17.373Z,5.40
2022-09-18T06:24:45.273Z,4.90
2022-09-18T06:27:18.465Z,5.10
2022-09-18T06:29:46.681Z,4.60
2022-09-18T06:32:27.824Z,4.50
2022-09-18T06:34:56.141Z,4.20
2022-09-18T06:37:25.564Z,4.70
2022-09-18T06:40:05.161Z,4.50
2022-09-18T06:42:48.253Z,4.20
2022-09-18T06:45:37.361Z,5.10
2022-09-18T06:48:07.416Z,4.40
2022-09-18T06:50:35.980Z,3.90
2022-09-18T06:53:12.183Z,4.60
2022-09-18T06:55:42.984Z,3.90
2022-09-18T06:58:10.722Z,3.90
2022-09-18T07:00:38.667Z,4.00
2022-09-18T07:03:09.742Z,3.70
2022-09-18T07:05:55.325Z,3.80
2022-09-18T07:08:41.751Z,4.40
2022-09-18T07:11:15.801Z,3.70
2022-09-18T07:13:43.641Z,3.90
2022-09-18T07:16:15.034Z,4.10
2022-09-18T07:18:43.808Z,3.70
2022-09-18T07:21:13.204Z,3.40
2022-09-18T07:23:41.611Z,3.30
2022-09-18T07:26:11.635Z,3.10
2022-09-18T07:28:40.158Z,3.70
2022-09-18T07:31:17.984Z,3.20
2022-09-18T07:33:53.904Z,3.10
2022-09-18T07:36:33.483Z,3.20
2022-09-18T07:39:01.834Z,3.10
2022-09-18T07:41:35.531Z,3.70
2022-09-18T07:44:03.506Z,3.10
2022-09-18T07:46:33.908Z,3.50
2022-09-18T07:49:05.199Z,3.40
2022-09-18T07:51:32.994Z,3.00
2022-09-18T07:54:00.848Z,3.20
2022-09-18T07:56:47.060Z,6.60
2022-09-18T07:59:18.469Z,4.70
2022-09-18T08:01:48.382Z,3.80
2022-09-18T08:04:17.306Z,3.90
2022-09-18T08:07:04.464Z,3.50
2022-09-18T08:09:48.331Z,3.60
2022-09-18T08:12:27.970Z,4.30
2022-09-18T08:15:11.958Z,4.10
2022-09-18T08:17:59.131Z,3.80
2022-09-18T08:20:49.764Z,3.90
2022-09-18T08:23:29.238Z,3.10
2022-09-18T08:26:03.982Z,3.10
2022-09-18T08:28:32.746Z,3.50
2022-09-18T08:31:02.991Z,3.20
2022-09-18T08:33:30.980Z,3.00
2022-09-18T08:36:01.465Z,3.10
2022-09-18T08:38:35.070Z,3.40
2022-09-18T08:44:08.660Z,3.00
2022-09-18T08:46:44.591Z,3.20
2022-09-18T08:49:24.613Z,3.30
2022-09-18T08:52:16.276Z,3.50
2022-09-18T08:54:59.831Z,3.30
2022-09-18T08:57:49.062Z,3.60
2022-09-18T09:01:02.521Z,3.80
2022-09-18T09:03:56.346Z,4.10
2022-09-18T09:06:56.604Z,3.80
2022-09-18T09:09:40.190Z,3.60
2022-09-18T09:12:30.710Z,4.20
2022-09-18T09:15:22.426Z,3.90
2022-09-18T09:20:50.710Z,3.80
2022-09-18T09:23:45.032Z,4.30
2022-09-18T09:26:32.317Z,3.80
2022-09-18T09:29:31.514Z,4.40
2022-09-18T09:32:36.554Z,3.30
2022-09-18T09:35:44.979Z,3.70
2022-09-18T09:38:43.215Z,3.90
2022-09-18T09:41:44.195Z,3.00
2022-09-18T09:44:27.519Z,3.90
2022-09-18T09:47:14.797Z,3.80
2022-09-18T09:49:57.034Z,4.20
2022-09-18T09:52:29.449Z,4.90
2022-09-18T09:55:29.432Z,3.70
2022-09-18T09:58:18.873Z,4.70
2022-09-18T10:01:08.988Z,4.70
2022-09-18T10:03:52.028Z,4.60
2022-09-18T10:06:41.833Z,4.40
2022-09-18T10:09:50.629Z,5.00
2022-09-18T10:12:24.336Z,5.00
2022-09-18T10:14:56.798Z,4.60
2022-09-18T10:17:27.643Z,5.60
2022-09-18T10:19:57.493Z,5.30
2022-09-18T10:22:27.380Z,5.90
2022-09-18T10:25:07.657Z,6.30
2022-09-18T10:27:36.443Z,5.30
2022-09-18T10:30:12.707Z,5.10
2022-09-18T10:32:52.932Z,5.60
2022-09-18T10:35:44.416Z,5.30
2022-09-18T10:38:34.155Z,5.40
2022-09-18T10:41:35.902Z,5.60
2022-09-18T10:44:21.377Z,5.60
2022-09-18T10:47:10.674Z,6.10
2022-09-18T10:49:56.805Z,5.50
2022-09-18T10:52:33.555Z,5.40
2022-09-18T10:55:10.698Z,5.90
2022-09-18T10:58:11.928Z,5.20
2022-09-18T11:01:00.832Z,5.60
2022-09-18T11:03:57.964Z,6.00
2022-09-18T11:06:34.495Z,5.60
2022-09-18T11:09:24.723Z,6.00
2022-09-18T11:11:52.535Z,5.90
2022-09-18T11:14:31.031Z,6.60
2022-09-18T11:17:22.109Z,6.60
2022-09-18T11:19:54.279Z,6.10
2022-09-18T11:22:45.054Z,6.80
2022-09-18T11:25:27.198Z,6.80
2022-09-18T11:28:27.586Z,7.50
2022-09-18T11:31:01.548Z,6.60
2022-09-18T11:33:43.619Z,7.20
2022-09-18T11:36:14.335Z,6.50
2022-09-18T11:38:45.951Z,6.80
2022-09-18T11:41:23.078Z,8.10
2022-09-18T11:44:12.710Z,7.40
2022-09-18T11:46:51.762Z,7.30
2022-09-18T11:49:26.571Z,7.90
2022-09-18T11:52:05.355Z,7.20
2022-09-18T11:55:00.796Z,8.10
2022-09-18T11:57:36.448Z,8.20
2022-09-18T12:00:09.308Z,8.30
2022-09-18T12:03:15.867Z,7.60
2022-09-18T12:05:43.815Z,7.70
2022-09-18T12:08:26.526Z,7.10
2022-09-18T12:11:20.692Z,6.40
2022-09-18T12:13:57.230Z,6.70
2022-09-18T12:16:46.071Z,6.80
2022-09-18T12:19:32.058Z,6.50
2022-09-18T12:22:17.348Z,5.60
2022-09-18T12:24:49.351Z,6.60
2022-09-18T12:27:28.161Z,6.20
2022-09-18T12:30:07.268Z,6.00
2022-09-18T12:32:56.882Z,5.80
2022-09-18T12:35:36.204Z,5.60
2022-09-18T12:38:13.512Z,7.20
2022-09-18T12:40:45.082Z,6.20
2022-09-18T12:43:35.189Z,6.40
2022-09-18T12:46:18.953Z,6.10
2022-09-18T12:49:08.532Z,6.30
2022-09-18T12:51:59.313Z,7.00
2022-09-18T12:54:40.933Z,7.70
2022-09-18T12:57:30.891Z,6.40
2022-09-18T13:00:09.085Z,6.80
2022-09-18T13:02:49.164Z,6.90
2022-09-18T13:05:37.218Z,7.20
2022-09-18T13:08:21.589Z,6.10
2022-09-18T13:10:56.384Z,5.60
2022-09-18T13:13:54.199Z,5.80
2022-09-18T13:16:45.480Z,5.60
2022-09-18T13:19:24.249Z,5.20
2022-09-18T13:21:53.096Z,5.00
2022-09-18T13:24:32.999Z,4.30
2022-09-18T13:27:06.900Z,4.80
2022-09-18T13:29:53.236Z,4.20
2022-09-18T13:32:36.562Z,5.10
2022-09-18T13:35:12.726Z,5.10
2022-09-18T13:37:44.160Z,5.40
2022-09-18T13:40:36.379Z,5.90
2022-09-18T13:43:29.278Z,5.30
2022-09-18T13:46:00.853Z,5.80
2022-09-18T13:48:55.520Z,5.50
2022-09-18T13:51:31.469Z,5.70
2022-09-18T13:54:20.398Z,6.10
2022-09-18T13:57:10.995Z,5.50
2022-09-18T13:59:58.497Z,5.90
2022-09-18T14:02:29.524Z,5.40
2022-09-18T14:04:58.584Z,6.20
2022-09-18T14:07:32.368Z,8.10
2022-09-18T14:10:22.695Z,8.10
2022-09-18T14:13:07.396Z,7.20
2022-09-18T14:15:35.892Z,6.60
2022-09-18T14:18:16.279Z,7.20
2022-09-18T14:20:50.387Z,7.20
2022-09-18T14:23:40.752Z,6.70
2022-09-18T14:26:32.189Z,6.30
2022-09-18T14:29:20.510Z,7.30
2022-09-18T14:31:55.901Z,6.50
2022-09-18T14:34:40.940Z,6.60
2022-09-18T14:37:30.631Z,6.60
2022-09-18T14:40:01.778Z,5.90
2022-09-18T14:42:42.016Z,6.00
2022-09-18T14:45:13.847Z,6.10
2022-09-18T14:47:47.582Z,6.80
2022-09-18T14:50:37.726Z,6.80
2022-09-18T14:53:24.507Z,6.40
2022-09-18T14:56:05.803Z,6.10
2022-09-18T14:58:42.064Z,6.30
2022-09-18T15:01:31.791Z,6.40
2022-09-18T15:04:02.183Z,7.30
2022-09-18T15:06:59.134Z,8.20
2022-09-18T15:09:34.509Z,6.50
2022-09-18T15:12:03.465Z,6.20
2022-09-18T15:14:44.311Z,7.70
2022-09-18T15:17:32.525Z,7.10
2022-09-18T15:20:17.550Z,7.30
2022-09-18T15:22:45.422Z,7.40
2022-09-18T15:25:14.639Z,8.10
2022-09-18T15:27:46.743Z,7.60
2022-09-18T15:30:19.539Z,8.10
2022-09-18T15:33:01.085Z,4.70
2022-09-18T15:35:33.757Z,3.00
2022-09-18T15:38:23.674Z,2.90
2022-09-18T15:40:52.850Z,2.40
2022-09-18T15:43:41.260Z,3.30
2022-09-18T15:46:33.631Z,2.50
2022-09-18T15:49:23.518Z,1.80
2022-09-18T15:51:51.331Z,2.00
2022-09-18T15:54:26.730Z,1.50
2022-09-18T15:56:59.417Z,2.60
2022-09-18T15:59:40.581Z,3.20
2022-09-18T16:02:29.139Z,2.80
2022-09-18T16:05:07.466Z,4.20
2022-09-18T16:07:37.463Z,2.40
2022-09-18T16:10:42.099Z,2.50
2022-09-18T16:13:12.899Z,2.30
2022-09-18T16:15:47.349Z,2.50
2022-09-18T16:18:15.828Z,2.40
2022-09-18T16:21:05.450Z,2.40
2022-09-18T16:23:47.622Z,2.00
2022-09-18T16:26:38.210Z,2.00
2022-09-18T16:29:24.115Z,2.40
2022-09-18T16:31:52.237Z,2.70
2022-09-18T16:34:24.939Z,2.50
2022-09-18T16:36:55.211Z,2.50
2022-09-18T16:39:25.710Z,2.20
2022-09-18T16:41:53.832Z,2.60
2022-09-18T16:44:21.642Z,2.50
2022-09-18T16:46:55.769Z,2.50
2022-09-18T16:49:28.148Z,3.10
2022-09-18T16:51:57.659Z,3.80
2022-09-18T16:54:26.018Z,3.80
2022-09-18T16:56:58.431Z,3.20
2022-09-18T16:59:29.919Z,3.60
2022-09-18T17:02:04.185Z,4.50
2022-09-18T17:04:33.789Z,5.00
2022-09-18T17:07:05.622Z,4.90
2022-09-18T17:09:33.623Z,6.30
2022-09-18T17:12:01.685Z,6.00
2022-09-18T17:14:29.687Z,5.90
2022-09-18T17:16:57.636Z,5.80
2022-09-18T17:19:25.487Z,5.20
2022-09-18T17:21:53.510Z,4.40
2022-09-18T17:24:25.614Z,4.80
2022-09-18T17:26:53.984Z,5.20
2022-09-18T17:29:21.984Z,4.70
2022-09-18T17:31:49.906Z,5.00
2022-09-18T17:34:18.945Z,5.60
2022-09-18T17:36:46.759Z,4.30
2022-09-18T17:39:16.992Z,5.10
2022-09-18T17:41:45.851Z,5.50
2022-09-18T17:44:15.231Z,5.00
2022-09-18T17:46:45.602Z,4.80
2022-09-18T17:49:13.666Z,4.90
2022-09-18T17:51:41.463Z,4.10
2022-09-18T17:54:10.435Z,4.10
2022-09-18T17:56:38.953Z,5.00
2022-09-18T17:59:09.842Z,5.60
2022-09-18T18:01:40.619Z,6.20
2022-09-18T18:04:09.177Z,4.90
2022-09-18T18:06:37.445Z,7.50
2022-09-18T18:09:07.260Z,6.80
2022-09-18T18:11:35.567Z,7.00
2022-09-18T18:14:06.261Z,6.40
2022-09-18T18:16:34.758Z,5.20
2022-09-18T18:19:05.774Z,5.90
2022-09-18T18:21:34.878Z,6.40
2022-09-18T18:24:06.845Z,6.20
2022-09-18T18:26:35.771Z,6.50
2022-09-18T18:29:05.754Z,6.40
2022-09-18T18:31:34.090Z,7.00
2022-09-18T18:34:01.997Z,6.50
2022-09-18T18:36:31.711Z,6.80
2022-09-18T18:39:01.800Z,6.20
2022-09-18T18:41:32.457Z,6.30
2022-09-18T18:44:05.705Z,5.90
2022-09-18T18:46:36.610Z,6.30
2022-09-18T18:49:09.262Z,5.60
2022-09-18T18:51:47.440Z,4.90
2022-09-18T18:54:17.881Z,4.50
2022-09-18T18:56:47.004Z,5.20
2022-09-18T18:59:17.395Z,4.20
2022-09-18T19:01:47.385Z,5.20
2022-09-18T19:04:19.002Z,5.10
2022-09-18T19:06:49.060Z,5.20
2022-09-18T19:09:26.007Z,5.20
2022-09-18T19:11:53.863Z,4.40
2022-09-18T19:14:25.207Z,5.30
2022-09-18T19:16:54.710Z,5.10
2022-09-18T19:19:25.624Z,5.20
2022-09-18T19:21:54.076Z,5.00
2022-09-18T19:24:22.509Z,3.90
2022-09-18T19:26:51.428Z,4.30
2022-09-18T19:29:21.963Z,4.30
2022-09-18T19:31:50.853Z,3.60
2022-09-18T19:34:22.082Z,3.30
2022-09-18T19:36:51.783Z,3.60
2022-09-18T19:39:21.323Z,3.70
2022-09-18T19:42:09.844Z,3.50
2022-09-18T19:44:44.385Z,3.40
2022-09-18T19:47:28.073Z,3.80
2022-09-18T19:50:00.018Z,4.30
2022-09-18T19:52:31.089Z,3.60
2022-09-18T19:54:59.420Z,4.10
2022-09-18T19:57:28.729Z,3.50
2022-09-18T19:59:58.650Z,4.40
2022-09-18T20:02:26.505Z,3.50
2022-09-18T20:04:54.342Z,3.20
2022-09-18T20:07:22.131Z,3.40
2022-09-18T20:09:50.089Z,3.70
2022-09-18T20:12:18.069Z,4.10
2022-09-18T20:14:45.869Z,3.50
2022-09-18T20:17:13.602Z,3.30
2022-09-18T20:19:41.363Z,3.40
2022-09-18T20:22:09.182Z,3.50
2022-09-18T20:24:36.995Z,4.50
2022-09-18T20:27:04.868Z,4.90
2022-09-18T20:29:33.642Z,5.50
2022-09-18T20:32:02.780Z,4.90
2022-09-18T20:34:30.585Z,5.10
2022-09-18T20:36:59.309Z,4.40
2022-09-18T20:39:27.283Z,3.50
2022-09-18T20:42:00.388Z,4.40
2022-09-18T20:44:28.583Z,3.70
2022-09-18T20:46:57.972Z,3.40
2022-09-18T20:49:25.919Z,3.30
2022-09-18T20:51:54.479Z,2.90
2022-09-18T20:54:22.880Z,3.30
2022-09-18T20:56:50.727Z,3.30
2022-09-18T20:59:19.315Z,2.70
2022-09-18T21:01:48.027Z,3.10
2022-09-18T21:04:19.411Z,3.30
2022-09-18T21:06:55.215Z,3.70
2022-09-18T21:09:26.372Z,3.60
2022-09-18T21:11:56.872Z,3.30
2022-09-18T21:14:27.364Z,3.40
2022-09-18T21:16:56.066Z,2.80
2022-09-18T21:19:26.005Z,6.40
2022-09-18T21:21:53.959Z,2.20
2022-09-18T21:24:22.264Z,2.50
2022-09-18T21:26:50.433Z,3.00
2022-09-18T21:29:26.805Z,3.20
2022-09-18T21:31:57.595Z,2.60
2022-09-18T21:34:31.311Z,2.30
2022-09-18T21:37:03.351Z,2.70
2022-09-18T21:39:32.203Z,3.00
2022-09-18T21:42:02.327Z,2.80
2022-09-18T21:44:31.837Z,3.20
2022-09-18T21:47:02.670Z,4.10
2022-09-18T21:49:31.965Z,4.80
2022-09-18T21:52:02.617Z,4.60
2022-09-18T21:54:31.937Z,3.90
2022-09-18T21:57:00.539Z,3.60
2022-09-18T21:59:31.594Z,2.70
2022-09-18T22:02:01.029Z,3.30
2022-09-18T22:04:32.472Z,2.80
2022-09-18T22:07:02.055Z,3.00
2022-09-18T22:09:36.626Z,3.90
2022-09-18T22:12:07.954Z,3.80
2022-09-18T22:14:38.182Z,3.50
2022-09-18T22:17:09.227Z,3.60
2022-09-18T22:19:41.351Z,3.50
2022-09-18T22:22:13.816Z,3.40
2022-09-18T22:24:41.678Z,3.60
2022-09-18T22:27:10.509Z,3.40
2022-09-18T22:29:39.871Z,3.60
2022-09-18T22:32:10.144Z,3.10
2022-09-18T22:34:38.051Z,3.70
2022-09-18T22:37:05.941Z,3.40
2022-09-18T22:39:35.213Z,3.40
2022-09-18T22:42:04.425Z,3.90
2022-09-18T22:44:32.293Z,3.10
2022-09-18T22:47:00.171Z,3.00
2022-09-18T22:49:28.111Z,2.80
2022-09-18T22:51:55.923Z,2.60
2022-09-18T22:54:27.564Z,3.10
2022-09-18T22:56:56.187Z,2.80
2022-09-18T22:59:26.014Z,3.20
2022-09-18T23:01:56.423Z,2.80
2022-09-18T23:04:29.212Z,3.00
2022-09-18T23:06:59.350Z,2.80
2022-09-18T23:09:29.514Z,3.20
2022-09-18T23:11:58.748Z,4.20
2022-09-18T23:14:29.452Z,5.10
2022-09-18T23:16:58.686Z,4.70
2022-09-18T23:19:30.425Z,5.00
2022-09-18T23:21:58.548Z,3.60
2022-09-18T23:24:26.939Z,4.40
2022-09-18T23:26:57.797Z,4.20
2022-09-18T23:29:27.765Z,4.90
2022-09-18T23:31:59.511Z,4.00
2022-09-18T23:34:33.882Z,4.30
2022-09-18T23:37:01.889Z,3.60
2022-09-18T23:39:34.604Z,3.90
2022-09-18T23:42:05.670Z,4.20
2022-09-18T23:44:34.253Z,3.20
2022-09-18T23:47:02.182Z,3.10
2022-09-18T23:49:30.831Z,3.50
2022-09-18T23:51:59.612Z,3.60
2022-09-18T23:54:30.518Z,3.40
2022-09-18T23:56:58.565Z,3.70
2022-09-18T23:59:27.529Z,3.40
